createdAt,value
2022-10-13T00:03:49.939Z,11.70
2022-10-13T00:09:55.019Z,11.60
2022-10-13T00:15:57.165Z,11.60
2022-10-13T00:22:03.076Z,11.50
2022-10-13T00:28:05.396Z,11.40
2022-10-13T00:34:07.823Z,11.50
2022-10-13T00:40:10.326Z,11.50
2022-10-13T00:46:12.376Z,11.40
2022-10-13T00:52:16.867Z,11.40
2022-10-13T00:58:23.722Z,11.40
2022-10-13T01:04:31.087Z,11.40
2022-10-13T01:10:42.553Z,11.40
2022-10-13T01:16:53.764Z,11.40
2022-10-13T01:23:33.045Z,11.40
2022-10-13T01:30:14.889Z,11.40
2022-10-13T01:36:21.570Z,11.40
2022-10-13T01:42:30.687Z,11.40
2022-10-13T01:48:36.386Z,11.30
2022-10-13T01:54:38.604Z,11.30
2022-10-13T02:00:48.777Z,11.30
2022-10-13T02:06:53.289Z,11.40
2022-10-13T02:13:07.561Z,11.50
2022-10-13T02:19:13.136Z,11.60
2022-10-13T02:25:15.416Z,11.60
2022-10-13T02:31:17.537Z,11.60
2022-10-13T02:37:19.799Z,11.60
2022-10-13T02:43:21.874Z,11.60
2022-10-13T02:49:24.095Z,11.50
2022-10-13T02:55:26.312Z,11.40
2022-10-13T03:01:31.346Z,11.40
2022-10-13T03:07:33.462Z,11.40
2022-10-13T03:13:37.533Z,11.30
2022-10-13T03:19:41.598Z,11.20
2022-10-13T03:25:45.836Z,11.20
2022-10-13T03:31:47.899Z,11.10
2022-10-13T03:37:49.974Z,11.00
2022-10-13T03:43:52.428Z,10.90
2022-10-13T03:49:55.614Z,10.80
2022-10-13T03:55:57.902Z,10.80
2022-10-13T04:02:00.019Z,10.70
2022-10-13T04:08:02.202Z,10.70
2022-10-13T04:14:04.286Z,10.60
2022-10-13T04:20:07.040Z,10.60
2022-10-13T04:26:14.519Z,10.60
2022-10-13T04:32:16.973Z,10.60
2022-10-13T04:38:19.243Z,10.70
2022-10-13T04:44:21.488Z,10.70
2022-10-13T04:50:23.641Z,10.80
2022-10-13T04:56:33.216Z,11.00
2022-10-13T05:02:37.311Z,11.20
2022-10-13T05:08:40.107Z,12.30
2022-10-13T05:14:42.139Z,15.20
2022-10-13T05:20:44.357Z,16.80
2022-10-13T05:26:46.458Z,18.60
2022-10-13T05:32:53.030Z,17.70
2022-10-13T05:39:01.901Z,16.90
2022-10-13T05:45:04.481Z,15.20
2022-10-13T05:51:19.596Z,14.50
2022-10-13T05:57:33.621Z,14.70
2022-10-13T06:03:36.387Z,14.60
2022-10-13T06:09:38.785Z,14.40
2022-10-13T06:15:41.238Z,14.80
2022-10-13T06:21:43.665Z,17.30
2022-10-13T06:27:46.240Z,18.00
2022-10-13T06:33:48.354Z,19.90
2022-10-13T06:39:50.843Z,24.20
2022-10-13T06:45:52.845Z,27.30
2022-10-13T06:51:55.011Z,27.50
2022-10-13T06:57:57.139Z,29.20
2022-10-13T07:03:59.370Z,29.80
2022-10-13T07:10:01.488Z,28.60
2022-10-13T07:16:04.967Z,28.50
2022-10-13T07:22:07.183Z,29.30
2022-10-13T07:28:09.300Z,30.00
2022-10-13T07:34:11.382Z,31.10
2022-10-13T07:40:13.548Z,31.60
2022-10-13T07:46:15.971Z,30.90
2022-10-13T07:52:18.573Z,32.90
2022-10-13T07:58:20.762Z,31.40
2022-10-13T08:04:22.831Z,31.30
2022-10-13T08:10:25.002Z,30.60
2022-10-13T08:16:28.627Z,28.80
2022-10-13T08:22:30.538Z,27.50
2022-10-13T08:28:32.558Z,25.20
2022-10-13T08:34:36.657Z,25.00
2022-10-13T08:40:39.654Z,24.50
2022-10-13T08:47:00.203Z,23.50
2022-10-13T08:53:03.868Z,23.20
2022-10-13T08:59:06.964Z,22.30
2022-10-13T09:05:16.581Z,22.40
2022-10-13T09:11:18.882Z,22.00
2022-10-13T09:17:26.861Z,21.80
2022-10-13T09:23:28.870Z,21.60
2022-10-13T09:29:30.938Z,21.60
2022-10-13T09:35:35.375Z,21.40
2022-10-13T09:41:37.774Z,21.40
2022-10-13T09:47:39.841Z,21.50
2022-10-13T09:53:47.432Z,21.80
2022-10-13T10:00:19.068Z,21.80
2022-10-13T10:06:23.999Z,21.90
2022-10-13T10:12:36.170Z,21.90
2022-10-13T10:19:01.832Z,22.20
2022-10-13T10:25:30.173Z,22.50
2022-10-13T10:31:40.976Z,22.50
2022-10-13T10:38:01.217Z,22.30
2022-10-13T10:44:06.859Z,22.30
2022-10-13T10:50:14.150Z,22.20
2022-10-13T10:56:25.812Z,23.40
2022-10-13T11:02:45.478Z,24.90
2022-10-13T11:08:49.698Z,26.40
2022-10-13T11:15:14.634Z,27.20
2022-10-13T11:21:16.764Z,28.30
2022-10-13T11:27:25.225Z,28.50
2022-10-13T11:33:39.680Z,29.60
2022-10-13T11:39:52.372Z,30.10
2022-10-13T11:46:06.424Z,26.40
2022-10-13T11:52:12.690Z,24.50
2022-10-13T11:58:23.315Z,23.70
2022-10-13T12:04:27.842Z,23.10
2022-10-13T12:10:36.263Z,22.50
2022-10-13T12:16:53.826Z,22.30
2022-10-13T12:22:57.214Z,22.10
2022-10-13T12:29:03.867Z,22.10
2022-10-13T12:35:27.547Z,21.90
2022-10-13T12:41:33.068Z,21.90
2022-10-13T12:47:44.210Z,21.90
2022-10-13T12:53:47.748Z,21.80
2022-10-13T12:59:50.220Z,21.70
2022-10-13T13:06:08.234Z,21.40
2022-10-13T13:12:13.463Z,21.30
2022-10-13T13:18:25.335Z,21.20
2022-10-13T13:24:39.496Z,21.00
2022-10-13T13:30:44.821Z,20.90
2022-10-13T13:36:49.599Z,20.90
2022-10-13T13:42:52.431Z,20.50
2022-10-13T13:48:54.527Z,20.40
2022-10-13T13:54:56.697Z,20.20
2022-10-13T14:01:00.038Z,20.20
2022-10-13T14:07:02.222Z,20.20
2022-10-13T14:13:04.475Z,20.10
2022-10-13T14:19:06.598Z,20.00
2022-10-13T14:25:09.384Z,19.90
2022-10-13T14:31:12.459Z,19.70
2022-10-13T14:37:15.884Z,19.50
2022-10-13T14:43:18.031Z,19.20
2022-10-13T14:49:20.217Z,19.10
2022-10-13T14:55:23.494Z,18.80
2022-10-13T15:01:25.678Z,18.60
2022-10-13T15:07:27.815Z,18.50
2022-10-13T15:13:30.578Z,18.50
2022-10-13T15:19:36.832Z,18.40
2022-10-13T15:25:39.872Z,18.40
2022-10-13T15:31:43.159Z,18.50
2022-10-13T15:37:45.449Z,18.60
2022-10-13T15:43:48.296Z,18.60
2022-10-13T15:49:50.358Z,18.60
2022-10-13T15:55:52.513Z,18.40
2022-10-13T16:01:54.557Z,18.30
2022-10-13T16:07:56.672Z,18.20
2022-10-13T16:13:59.103Z,18.10
2022-10-13T16:20:01.578Z,18.10
2022-10-13T16:26:05.339Z,18.10
2022-10-13T16:32:07.454Z,18.00
2022-10-13T16:38:09.762Z,18.00
2022-10-13T16:44:13.561Z,17.90
2022-10-13T16:50:15.495Z,17.80
2022-10-13T16:56:22.330Z,17.70
2022-10-13T17:02:24.717Z,17.50
2022-10-13T17:08:26.898Z,17.40
2022-10-13T17:14:28.993Z,17.30
2022-10-13T17:20:31.079Z,17.30
2022-10-13T17:26:33.158Z,17.20
2022-10-13T17:32:39.233Z,17.20
2022-10-13T17:38:42.416Z,17.20
2022-10-13T17:44:44.522Z,17.10
2022-10-13T17:50:46.602Z,17.10
2022-10-13T17:56:49.033Z,17.00
2022-10-13T18:02:51.568Z,17.00
2022-10-13T18:08:53.853Z,16.90
2022-10-13T18:14:56.154Z,16.60
2022-10-13T18:21:00.783Z,16.20
2022-10-13T18:27:02.844Z,15.80
2022-10-13T18:33:05.158Z,15.50
2022-10-13T18:39:19.345Z,15.30
2022-10-13T18:45:24.613Z,15.00
2022-10-13T18:51:29.966Z,14.90
2022-10-13T18:57:35.381Z,14.70
2022-10-13T19:03:39.828Z,14.60
2022-10-13T19:09:42.093Z,14.60
2022-10-13T19:15:44.434Z,14.70
2022-10-13T19:21:46.596Z,14.70
2022-10-13T19:27:48.736Z,14.70
2022-10-13T19:33:52.703Z,14.70
2022-10-13T19:39:54.787Z,14.70
2022-10-13T19:45:59.778Z,14.60
2022-10-13T19:52:02.243Z,14.70
2022-10-13T19:58:04.387Z,14.70
2022-10-13T20:04:10.109Z,14.60
2022-10-13T20:10:13.593Z,14.60
2022-10-13T20:16:18.660Z,14.60
2022-10-13T20:22:21.089Z,14.60
2022-10-13T20:28:23.152Z,14.60
2022-10-13T20:34:25.360Z,14.60
2022-10-13T20:40:27.463Z,14.60
2022-10-13T20:46:29.726Z,14.60
2022-10-13T20:52:31.959Z,14.50
2022-10-13T20:58:35.685Z,14.50
2022-10-13T21:04:37.792Z,14.50
2022-10-13T21:10:39.923Z,14.50
2022-10-13T21:16:42.134Z,14.50
2022-10-13T21:22:44.431Z,14.50
2022-10-13T21:28:46.469Z,14.50
2022-10-13T21:34:49.184Z,14.40
2022-10-13T21:40:54.267Z,14.40
2022-10-13T21:46:56.312Z,14.40
2022-10-13T21:52:58.593Z,14.40
2022-10-13T21:59:01.526Z,14.30
2022-10-13T22:05:03.911Z,14.30
2022-10-13T22:11:08.040Z,14.30
2022-10-13T22:17:10.301Z,14.30
2022-10-13T22:23:12.364Z,14.30
2022-10-13T22:29:20.783Z,14.20
2022-10-13T22:35:23.122Z,14.20
2022-10-13T22:41:25.854Z,14.10
2022-10-13T22:47:27.714Z,14.00
2022-10-13T22:53:29.768Z,14.00
2022-10-13T22:59:31.944Z,13.90
2022-10-13T23:05:34.107Z,13.90
2022-10-13T23:11:36.462Z,13.80
2022-10-13T23:17:40.560Z,13.80
2022-10-13T23:23:42.935Z,13.70
2022-10-13T23:29:45.122Z,13.60
2022-10-13T23:35:55.012Z,13.50
2022-10-13T23:41:58.010Z,13.50
2022-10-13T23:48:00.329Z,13.40
2022-10-13T23:54:03.852Z,13.30
